sensor_id;sensor_type;location;lat;lon;timestamp;temperature;humidity
60234;DHT22;49514;43.538;-5.708;2023-06-26T00:01:29;23.50;99.90
60234;DHT22;49514;43.538;-5.708;2023-06-26T00:03:58;23.50;99.90
60234;DHT22;49514;43.538;-5.708;2023-06-26T00:06:25;23.50;99.90
60234;DHT22;49514;43.538;-5.708;2023-06-26T00:08:53;23.50;99.90
60234;DHT22;49514;43.538;-5.708;2023-06-26T00:11:21;23.50;99.90
60234;DHT22;49514;43.538;-5.708;2023-06-26T00:13:48;23.40;99.90
60234;DHT22;49514;43.538;-5.708;2023-06-26T00:16:14;23.40;99.90
60234;DHT22;49514;43.538;-5.708;2023-06-26T00:18:41;23.40;99.90
60234;DHT22;49514;43.538;-5.708;2023-06-26T00:21:08;23.40;99.90
60234;DHT22;49514;43.538;-5.708;2023-06-26T00:23:34;23.40;99.90
60234;DHT22;49514;43.538;-5.708;2023-06-26T00:26:05;23.40;99.90
60234;DHT22;49514;43.538;-5.708;2023-06-26T00:28:32;23.40;99.90
60234;DHT22;49514;43.538;-5.708;2023-06-26T00:30:59;23.30;99.90
60234;DHT22;49514;43.538;-5.708;2023-06-26T00:33:25;23.40;99.90
60234;DHT22;49514;43.538;-5.708;2023-06-26T00:35:52;23.40;99.90
60234;DHT22;49514;43.538;-5.708;2023-06-26T00:38:19;23.30;99.90
60234;DHT22;49514;43.538;-5.708;2023-06-26T00:40:45;23.30;99.90
60234;DHT22;49514;43.538;-5.708;2023-06-26T00:43:12;23.30;99.90
60234;DHT22;49514;43.538;-5.708;2023-06-26T00:45:38;23.30;99.90
60234;DHT22;49514;43.538;-5.708;2023-06-26T00:48:05;23.30;99.90
60234;DHT22;49514;43.538;-5.708;2023-06-26T00:50:32;23.30;99.90
60234;DHT22;49514;43.538;-5.708;2023-06-26T00:52:59;23.20;99.90
60234;DHT22;49514;43.538;-5.708;2023-06-26T00:55:27;23.20;99.90
60234;DHT22;49514;43.538;-5.708;2023-06-26T00:57:54;23.20;99.90
60234;DHT22;49514;43.538;-5.708;2023-06-26T01:00:21;23.20;99.90
60234;DHT22;49514;43.538;-5.708;2023-06-26T01:02:48;23.10;99.90
60234;DHT22;49514;43.538;-5.708;2023-06-26T01:05:15;23.10;99.90
60234;DHT22;49514;43.538;-5.708;2023-06-26T01:07:49;23.10;99.90
60234;DHT22;49514;43.538;-5.708;2023-06-26T01:10:18;23.10;99.90
60234;DHT22;49514;43.538;-5.708;2023-06-26T01:12:45;23.10;99.90
60234;DHT22;49514;43.538;-5.708;2023-06-26T01:15:12;23.10;99.90
60234;DHT22;49514;43.538;-5.708;2023-06-26T01:17:39;23.10;99.90
60234;DHT22;49514;43.538;-5.708;2023-06-26T01:20:06;23.10;99.90
60234;DHT22;49514;43.538;-5.708;2023-06-26T01:22:43;23.10;99.90
60234;DHT22;49514;43.538;-5.708;2023-06-26T01:28:14;23.10;99.90
60234;DHT22;49514;43.538;-5.708;2023-06-26T01:30:44;23.10;99.90
60234;DHT22;49514;43.538;-5.708;2023-06-26T01:33:14;23.00;99.90
60234;DHT22;49514;43.538;-5.708;2023-06-26T01:35:41;23.00;99.90
60234;DHT22;49514;43.538;-5.708;2023-06-26T01:38:19;23.00;99.90
60234;DHT22;49514;43.538;-5.708;2023-06-26T01:40:47;23.00;99.90
60234;DHT22;49514;43.538;-5.708;2023-06-26T02:28:18;22.30;99.90
60234;DHT22;49514;43.538;-5.708;2023-06-26T02:40:32;22.10;99.90
60234;DHT22;49514;43.538;-5.708;2023-06-26T02:43:00;22.10;99.90
60234;DHT22;49514;43.538;-5.708;2023-06-26T07:55:53;24.60;99.90
60234;DHT22;49514;43.538;-5.708;2023-06-26T07:58:27;24.90;99.90
60234;DHT22;49514;43.538;-5.708;2023-06-26T08:18:14;25.30;99.90
60234;DHT22;49514;43.538;-5.708;2023-06-26T08:20:41;25.50;99.90
60234;DHT22;49514;43.538;-5.708;2023-06-26T08:23:08;25.60;99.90
60234;DHT22;49514;43.538;-5.708;2023-06-26T08:25:35;25.70;99.90
60234;DHT22;49514;43.538;-5.708;2023-06-26T08:28:02;25.90;99.90
60234;DHT22;49514;43.538;-5.708;2023-06-26T08:30:29;26.00;99.90
60234;DHT22;49514;43.538;-5.708;2023-06-26T08:32:56;26.10;99.90
60234;DHT22;49514;43.538;-5.708;2023-06-26T08:35:23;26.30;99.90
60234;DHT22;49514;43.538;-5.708;2023-06-26T08:37:49;26.20;99.90
60234;DHT22;49514;43.538;-5.708;2023-06-26T08:40:17;26.30;99.90
60234;DHT22;49514;43.538;-5.708;2023-06-26T08:42:47;26.40;99.90
60234;DHT22;49514;43.538;-5.708;2023-06-26T08:45:17;26.50;99.90
60234;DHT22;49514;43.538;-5.708;2023-06-26T08:47:43;26.50;99.90
60234;DHT22;49514;43.538;-5.708;2023-06-26T08:50:13;26.60;99.90
60234;DHT22;49514;43.538;-5.708;2023-06-26T08:52:48;26.60;99.90
60234;DHT22;49514;43.538;-5.708;2023-06-26T08:55:16;26.70;99.90
60234;DHT22;49514;43.538;-5.708;2023-06-26T08:57:44;26.90;99.90
60234;DHT22;49514;43.538;-5.708;2023-06-26T09:00:12;26.90;99.90
60234;DHT22;49514;43.538;-5.708;2023-06-26T09:02:41;27.00;99.90
60234;DHT22;49514;43.538;-5.708;2023-06-26T09:05:08;27.00;99.90
60234;DHT22;49514;43.538;-5.708;2023-06-26T09:07:34;26.90;99.90
60234;DHT22;49514;43.538;-5.708;2023-06-26T09:10:01;26.90;99.90
60234;DHT22;49514;43.538;-5.708;2023-06-26T09:52:21;27.60;99.90
60234;DHT22;49514;43.538;-5.708;2023-06-26T09:54:48;28.00;99.90
60234;DHT22;49514;43.538;-5.708;2023-06-26T09:57:18;28.20;99.90
60234;DHT22;49514;43.538;-5.708;2023-06-26T09:59:45;28.30;99.90
60234;DHT22;49514;43.538;-5.708;2023-06-26T10:02:12;28.30;99.90
60234;DHT22;49514;43.538;-5.708;2023-06-26T10:04:39;28.30;99.90
60234;DHT22;49514;43.538;-5.708;2023-06-26T10:07:13;28.50;99.90
60234;DHT22;49514;43.538;-5.708;2023-06-26T10:09:44;28.60;99.90
60234;DHT22;49514;43.538;-5.708;2023-06-26T10:12:23;28.90;99.90
60234;DHT22;49514;43.538;-5.708;2023-06-26T10:14:52;29.10;99.90
60234;DHT22;49514;43.538;-5.708;2023-06-26T10:17:20;29.30;99.90
60234;DHT22;49514;43.538;-5.708;2023-06-26T10:19:48;29.40;99.90
60234;DHT22;49514;43.538;-5.708;2023-06-26T10:22:17;29.50;99.90
60234;DHT22;49514;43.538;-5.708;2023-06-26T10:24:45;29.50;99.90
60234;DHT22;49514;43.538;-5.708;2023-06-26T10:27:21;29.40;99.90
60234;DHT22;49514;43.538;-5.708;2023-06-26T10:29:54;29.40;99.90
60234;DHT22;49514;43.538;-5.708;2023-06-26T10:32:24;29.50;99.90
60234;DHT22;49514;43.538;-5.708;2023-06-26T10:34:52;29.60;99.90
60234;DHT22;49514;43.538;-5.708;2023-06-26T10:37:19;29.40;99.90
60234;DHT22;49514;43.538;-5.708;2023-06-26T10:42:14;29.50;99.90
60234;DHT22;49514;43.538;-5.708;2023-06-26T10:44:45;29.40;99.90
60234;DHT22;49514;43.538;-5.708;2023-06-26T10:47:29;29.40;99.90
60234;DHT22;49514;43.538;-5.708;2023-06-26T10:49:57;29.50;99.90
60234;DHT22;49514;43.538;-5.708;2023-06-26T10:52:26;29.60;99.90
60234;DHT22;49514;43.538;-5.708;2023-06-26T10:54:54;29.80;99.90
60234;DHT22;49514;43.538;-5.708;2023-06-26T10:57:25;30.10;99.90
60234;DHT22;49514;43.538;-5.708;2023-06-26T11:00:24;30.40;99.90
60234;DHT22;49514;43.538;-5.708;2023-06-26T11:02:51;30.40;99.90
60234;DHT22;49514;43.538;-5.708;2023-06-26T11:10:53;30.60;99.90
60234;DHT22;49514;43.538;-5.708;2023-06-26T11:13:23;30.60;99.90
60234;DHT22;49514;43.538;-5.708;2023-06-26T11:15:50;31.10;99.90
60234;DHT22;49514;43.538;-5.708;2023-06-26T11:18:17;31.30;99.90
60234;DHT22;49514;43.538;-5.708;2023-06-26T11:20:44;31.40;99.90
60234;DHT22;49514;43.538;-5.708;2023-06-26T11:23:12;31.00;99.90
60234;DHT22;49514;43.538;-5.708;2023-06-26T11:25:38;31.00;99.90
60234;DHT22;49514;43.538;-5.708;2023-06-26T11:30:33;31.50;99.90
60234;DHT22;49514;43.538;-5.708;2023-06-26T11:33:07;31.60;99.90
60234;DHT22;49514;43.538;-5.708;2023-06-26T11:35:34;31.60;99.90
60234;DHT22;49514;43.538;-5.708;2023-06-26T11:38:02;31.50;99.90
60234;DHT22;49514;43.538;-5.708;2023-06-26T11:40:36;31.60;99.90
60234;DHT22;49514;43.538;-5.708;2023-06-26T11:43:03;31.80;99.90
60234;DHT22;49514;43.538;-5.708;2023-06-26T11:45:31;31.90;99.90
60234;DHT22;49514;43.538;-5.708;2023-06-26T11:47:59;32.10;99.90
60234;DHT22;49514;43.538;-5.708;2023-06-26T11:50:27;32.00;99.90
60234;DHT22;49514;43.538;-5.708;2023-06-26T11:52:57;32.10;99.10
60234;DHT22;49514;43.538;-5.708;2023-06-26T11:55:25;32.20;99.90
60234;DHT22;49514;43.538;-5.708;2023-06-26T11:57:56;32.30;99.10
60234;DHT22;49514;43.538;-5.708;2023-06-26T12:00:23;32.40;98.80
60234;DHT22;49514;43.538;-5.708;2023-06-26T12:02:50;32.40;97.70
60234;DHT22;49514;43.538;-5.708;2023-06-26T12:05:18;32.40;97.40
60234;DHT22;49514;43.538;-5.708;2023-06-26T12:07:48;32.40;97.20
60234;DHT22;49514;43.538;-5.708;2023-06-26T12:10:16;32.30;97.50
60234;DHT22;49514;43.538;-5.708;2023-06-26T12:12:43;32.70;96.80
60234;DHT22;49514;43.538;-5.708;2023-06-26T12:15:14;32.90;95.80
60234;DHT22;49514;43.538;-5.708;2023-06-26T12:17:41;33.30;95.00
60234;DHT22;49514;43.538;-5.708;2023-06-26T12:20:20;33.60;94.60
60234;DHT22;49514;43.538;-5.708;2023-06-26T12:22:48;33.70;94.00
60234;DHT22;49514;43.538;-5.708;2023-06-26T12:25:16;33.70;94.40
60234;DHT22;49514;43.538;-5.708;2023-06-26T12:27:47;33.80;93.50
60234;DHT22;49514;43.538;-5.708;2023-06-26T12:30:14;34.00;92.90
60234;DHT22;49514;43.538;-5.708;2023-06-26T12:32:45;33.80;93.60
60234;DHT22;49514;43.538;-5.708;2023-06-26T12:35:12;33.70;93.50
60234;DHT22;49514;43.538;-5.708;2023-06-26T12:37:39;33.80;93.30
60234;DHT22;49514;43.538;-5.708;2023-06-26T12:40:17;33.60;93.30
60234;DHT22;49514;43.538;-5.708;2023-06-26T12:42:45;33.60;93.70
60234;DHT22;49514;43.538;-5.708;2023-06-26T12:45:13;33.50;93.80
60234;DHT22;49514;43.538;-5.708;2023-06-26T12:47:41;33.40;94.00
60234;DHT22;49514;43.538;-5.708;2023-06-26T12:50:08;33.40;93.90
60234;DHT22;49514;43.538;-5.708;2023-06-26T12:52:35;33.00;94.20
60234;DHT22;49514;43.538;-5.708;2023-06-26T12:55:04;32.90;94.50
60234;DHT22;49514;43.538;-5.708;2023-06-26T12:57:31;32.80;94.70
60234;DHT22;49514;43.538;-5.708;2023-06-26T12:59:58;32.50;94.70
60234;DHT22;49514;43.538;-5.708;2023-06-26T13:02:26;32.10;95.40
60234;DHT22;49514;43.538;-5.708;2023-06-26T13:04:54;32.00;95.80
60234;DHT22;49514;43.538;-5.708;2023-06-26T13:07:20;32.00;96.00
60234;DHT22;49514;43.538;-5.708;2023-06-26T13:09:47;31.90;96.20
60234;DHT22;49514;43.538;-5.708;2023-06-26T13:12:15;31.70;96.80
60234;DHT22;49514;43.538;-5.708;2023-06-26T13:14:42;31.80;96.70
60234;DHT22;49514;43.538;-5.708;2023-06-26T13:17:11;31.90;96.70
60234;DHT22;49514;43.538;-5.708;2023-06-26T13:19:38;31.80;97.10
60234;DHT22;49514;43.538;-5.708;2023-06-26T13:22:05;31.70;97.80
60234;DHT22;49514;43.538;-5.708;2023-06-26T13:24:32;32.20;97.80
60234;DHT22;49514;43.538;-5.708;2023-06-26T13:26:59;34.10;94.90
60234;DHT22;49514;43.538;-5.708;2023-06-26T13:29:26;34.20;94.00
60234;DHT22;49514;43.538;-5.708;2023-06-26T13:31:53;35.00;93.50
60234;DHT22;49514;43.538;-5.708;2023-06-26T13:34:21;37.00;90.90
60234;DHT22;49514;43.538;-5.708;2023-06-26T13:36:54;38.80;88.40
60234;DHT22;49514;43.538;-5.708;2023-06-26T13:39:21;40.80;84.10
60234;DHT22;49514;43.538;-5.708;2023-06-26T13:41:48;41.70;79.20
60234;DHT22;49514;43.538;-5.708;2023-06-26T13:44:14;40.80;77.10
60234;DHT22;49514;43.538;-5.708;2023-06-26T13:46:41;39.20;79.30
60234;DHT22;49514;43.538;-5.708;2023-06-26T13:49:08;38.60;81.20
60234;DHT22;49514;43.538;-5.708;2023-06-26T13:51:35;38.10;78.80
60234;DHT22;49514;43.538;-5.708;2023-06-26T13:54:02;37.10;80.40
60234;DHT22;49514;43.538;-5.708;2023-06-26T13:56:29;36.60;81.10
60234;DHT22;49514;43.538;-5.708;2023-06-26T13:58:57;36.10;82.90
60234;DHT22;49514;43.538;-5.708;2023-06-26T14:01:24;35.90;83.20
60234;DHT22;49514;43.538;-5.708;2023-06-26T14:03:51;35.90;82.60
60234;DHT22;49514;43.538;-5.708;2023-06-26T14:06:18;35.80;83.00
60234;DHT22;49514;43.538;-5.708;2023-06-26T14:08:45;35.50;83.40
60234;DHT22;49514;43.538;-5.708;2023-06-26T14:11:12;35.30;84.00
60234;DHT22;49514;43.538;-5.708;2023-06-26T14:13:39;35.10;84.20
60234;DHT22;49514;43.538;-5.708;2023-06-26T14:16:05;35.00;85.00
60234;DHT22;49514;43.538;-5.708;2023-06-26T14:18:32;35.10;84.50
60234;DHT22;49514;43.538;-5.708;2023-06-26T14:21:00;35.20;84.40
60234;DHT22;49514;43.538;-5.708;2023-06-26T14:23:27;35.20;84.20
60234;DHT22;49514;43.538;-5.708;2023-06-26T14:25:53;35.40;84.40
60234;DHT22;49514;43.538;-5.708;2023-06-26T14:28:20;35.90;84.10
60234;DHT22;49514;43.538;-5.708;2023-06-26T14:30:46;36.60;81.80
60234;DHT22;49514;43.538;-5.708;2023-06-26T14:33:13;37.20;79.50
60234;DHT22;49514;43.538;-5.708;2023-06-26T14:35:39;37.90;79.90
60234;DHT22;49514;43.538;-5.708;2023-06-26T14:38:06;38.40;76.80
60234;DHT22;49514;43.538;-5.708;2023-06-26T14:40:32;38.90;76.10
60234;DHT22;49514;43.538;-5.708;2023-06-26T14:42:59;39.00;74.00
60234;DHT22;49514;43.538;-5.708;2023-06-26T14:45:25;38.50;74.30
60234;DHT22;49514;43.538;-5.708;2023-06-26T14:47:52;38.60;73.90
60234;DHT22;49514;43.538;-5.708;2023-06-26T14:50:19;38.10;74.30
60234;DHT22;49514;43.538;-5.708;2023-06-26T14:52:47;37.60;75.20
60234;DHT22;49514;43.538;-5.708;2023-06-26T14:55:13;38.00;75.60
60234;DHT22;49514;43.538;-5.708;2023-06-26T14:57:40;38.20;75.20
60234;DHT22;49514;43.538;-5.708;2023-06-26T15:00:08;38.80;74.50
60234;DHT22;49514;43.538;-5.708;2023-06-26T15:02:35;38.90;74.00
60234;DHT22;49514;43.538;-5.708;2023-06-26T15:05:01;39.00;72.70
60234;DHT22;49514;43.538;-5.708;2023-06-26T15:07:28;39.70;72.70
60234;DHT22;49514;43.538;-5.708;2023-06-26T15:09:54;40.30;71.20
60234;DHT22;49514;43.538;-5.708;2023-06-26T15:12:21;40.80;72.20
60234;DHT22;49514;43.538;-5.708;2023-06-26T15:14:49;41.00;70.50
60234;DHT22;49514;43.538;-5.708;2023-06-26T15:17:17;40.70;70.40
60234;DHT22;49514;43.538;-5.708;2023-06-26T15:19:44;40.80;71.00
60234;DHT22;49514;43.538;-5.708;2023-06-26T15:22:10;41.00;70.20
60234;DHT22;49514;43.538;-5.708;2023-06-26T15:24:36;41.90;70.60
60234;DHT22;49514;43.538;-5.708;2023-06-26T15:27:04;42.50;68.70
60234;DHT22;49514;43.538;-5.708;2023-06-26T15:29:30;42.50;68.50
60234;DHT22;49514;43.538;-5.708;2023-06-26T15:31:57;42.20;67.70
60234;DHT22;49514;43.538;-5.708;2023-06-26T15:34:23;42.10;67.60
60234;DHT22;49514;43.538;-5.708;2023-06-26T15:36:50;41.90;67.90
60234;DHT22;49514;43.538;-5.708;2023-06-26T15:39:16;42.20;67.60
60234;DHT22;49514;43.538;-5.708;2023-06-26T15:41:43;42.30;67.50
60234;DHT22;49514;43.538;-5.708;2023-06-26T15:44:10;42.50;67.80
60234;DHT22;49514;43.538;-5.708;2023-06-26T15:46:36;42.00;67.70
60234;DHT22;49514;43.538;-5.708;2023-06-26T15:49:03;40.60;67.90
60234;DHT22;49514;43.538;-5.708;2023-06-26T15:51:29;40.50;69.10
60234;DHT22;49514;43.538;-5.708;2023-06-26T15:53:56;40.40;69.30
60234;DHT22;49514;43.538;-5.708;2023-06-26T15:56:23;41.30;68.70
60234;DHT22;49514;43.538;-5.708;2023-06-26T15:58:49;41.40;68.10
60234;DHT22;49514;43.538;-5.708;2023-06-26T16:01:16;41.00;68.30
60234;DHT22;49514;43.538;-5.708;2023-06-26T16:03:42;41.40;69.40
60234;DHT22;49514;43.538;-5.708;2023-06-26T16:06:09;43.30;68.00
60234;DHT22;49514;43.538;-5.708;2023-06-26T16:08:36;44.80;65.30
60234;DHT22;49514;43.538;-5.708;2023-06-26T16:11:03;45.60;65.20
60234;DHT22;49514;43.538;-5.708;2023-06-26T16:13:31;46.30;65.10
60234;DHT22;49514;43.538;-5.708;2023-06-26T16:15:57;46.50;62.80
60234;DHT22;49514;43.538;-5.708;2023-06-26T16:18:24;47.10;62.80
60234;DHT22;49514;43.538;-5.708;2023-06-26T16:20:50;47.40;60.30
60234;DHT22;49514;43.538;-5.708;2023-06-26T16:23:17;47.70;61.00
60234;DHT22;49514;43.538;-5.708;2023-06-26T16:25:44;48.20;60.60
60234;DHT22;49514;43.538;-5.708;2023-06-26T16:28:12;48.70;60.30
60234;DHT22;49514;43.538;-5.708;2023-06-26T16:30:38;48.90;60.40
60234;DHT22;49514;43.538;-5.708;2023-06-26T16:33:08;48.90;59.00
60234;DHT22;49514;43.538;-5.708;2023-06-26T16:35:34;48.80;57.70
60234;DHT22;49514;43.538;-5.708;2023-06-26T16:38:03;48.70;60.30
60234;DHT22;49514;43.538;-5.708;2023-06-26T16:40:30;48.50;62.20
60234;DHT22;49514;43.538;-5.708;2023-06-26T16:42:57;48.60;63.70
60234;DHT22;49514;43.538;-5.708;2023-06-26T16:45:23;48.00;60.60
60234;DHT22;49514;43.538;-5.708;2023-06-26T16:47:50;47.80;60.60
60234;DHT22;49514;43.538;-5.708;2023-06-26T16:50:16;47.60;63.20
60234;DHT22;49514;43.538;-5.708;2023-06-26T16:52:43;48.30;61.40
60234;DHT22;49514;43.538;-5.708;2023-06-26T16:55:09;48.10;61.50
60234;DHT22;49514;43.538;-5.708;2023-06-26T16:57:36;48.30;61.40
60234;DHT22;49514;43.538;-5.708;2023-06-26T17:00:03;47.60;59.70
60234;DHT22;49514;43.538;-5.708;2023-06-26T17:02:31;47.10;60.90
60234;DHT22;49514;43.538;-5.708;2023-06-26T17:04:58;46.80;59.60
60234;DHT22;49514;43.538;-5.708;2023-06-26T17:07:25;46.70;59.50
60234;DHT22;49514;43.538;-5.708;2023-06-26T17:09:51;46.90;60.70
60234;DHT22;49514;43.538;-5.708;2023-06-26T17:12:18;47.30;68.90
60234;DHT22;49514;43.538;-5.708;2023-06-26T17:14:44;47.20;67.50
60234;DHT22;49514;43.538;-5.708;2023-06-26T17:17:11;45.90;62.10
60234;DHT22;49514;43.538;-5.708;2023-06-26T17:19:41;45.60;66.90
60234;DHT22;49514;43.538;-5.708;2023-06-26T17:22:08;45.60;68.40
60234;DHT22;49514;43.538;-5.708;2023-06-26T17:24:34;45.10;69.40
60234;DHT22;49514;43.538;-5.708;2023-06-26T17:27:07;45.20;69.80
60234;DHT22;49514;43.538;-5.708;2023-06-26T17:29:34;45.00;71.10
60234;DHT22;49514;43.538;-5.708;2023-06-26T17:32:01;45.10;68.50
60234;DHT22;49514;43.538;-5.708;2023-06-26T17:34:27;44.70;67.70
60234;DHT22;49514;43.538;-5.708;2023-06-26T17:36:54;44.20;67.50
60234;DHT22;49514;43.538;-5.708;2023-06-26T17:39:20;44.10;65.30
60234;DHT22;49514;43.538;-5.708;2023-06-26T17:41:47;43.80;66.70
60234;DHT22;49514;43.538;-5.708;2023-06-26T17:44:13;43.40;66.70
60234;DHT22;49514;43.538;-5.708;2023-06-26T17:46:39;42.60;67.20
60234;DHT22;49514;43.538;-5.708;2023-06-26T17:49:06;42.20;67.40
60234;DHT22;49514;43.538;-5.708;2023-06-26T17:51:32;42.50;66.80
60234;DHT22;49514;43.538;-5.708;2023-06-26T17:54:00;42.40;66.90
60234;DHT22;49514;43.538;-5.708;2023-06-26T17:56:26;41.90;67.10
60234;DHT22;49514;43.538;-5.708;2023-06-26T17:58:54;41.50;67.10
60234;DHT22;49514;43.538;-5.708;2023-06-26T18:01:20;40.30;68.90
60234;DHT22;49514;43.538;-5.708;2023-06-26T18:03:47;39.30;69.80
60234;DHT22;49514;43.538;-5.708;2023-06-26T18:06:13;38.00;71.20
60234;DHT22;49514;43.538;-5.708;2023-06-26T18:08:39;36.80;73.80
60234;DHT22;49514;43.538;-5.708;2023-06-26T18:11:06;36.10;74.90
60234;DHT22;49514;43.538;-5.708;2023-06-26T18:13:32;35.50;76.10
60234;DHT22;49514;43.538;-5.708;2023-06-26T18:15:59;34.80;73.70
60234;DHT22;49514;43.538;-5.708;2023-06-26T18:18:26;34.20;74.50
60234;DHT22;49514;43.538;-5.708;2023-06-26T18:20:52;33.90;76.60
60234;DHT22;49514;43.538;-5.708;2023-06-26T18:23:19;33.60;77.60
60234;DHT22;49514;43.538;-5.708;2023-06-26T18:25:45;33.20;78.90
60234;DHT22;49514;43.538;-5.708;2023-06-26T18:28:12;33.00;78.70
60234;DHT22;49514;43.538;-5.708;2023-06-26T18:30:40;32.60;82.80
60234;DHT22;49514;43.538;-5.708;2023-06-26T18:33:07;32.10;85.30
60234;DHT22;49514;43.538;-5.708;2023-06-26T18:35:34;31.80;86.40
60234;DHT22;49514;43.538;-5.708;2023-06-26T18:38:01;31.50;90.20
60234;DHT22;49514;43.538;-5.708;2023-06-26T18:40:29;31.40;90.00
60234;DHT22;49514;43.538;-5.708;2023-06-26T18:42:56;31.40;90.10
60234;DHT22;49514;43.538;-5.708;2023-06-26T18:45:23;31.20;91.50
60234;DHT22;49514;43.538;-5.708;2023-06-26T18:47:50;31.30;91.20
60234;DHT22;49514;43.538;-5.708;2023-06-26T18:50:18;31.30;90.60
60234;DHT22;49514;43.538;-5.708;2023-06-26T18:52:49;31.10;90.70
60234;DHT22;49514;43.538;-5.708;2023-06-26T18:55:16;30.70;92.50
60234;DHT22;49514;43.538;-5.708;2023-06-26T18:57:47;30.40;92.00
60234;DHT22;49514;43.538;-5.708;2023-06-26T19:00:14;30.30;92.00
60234;DHT22;49514;43.538;-5.708;2023-06-26T19:02:42;30.00;94.20
60234;DHT22;49514;43.538;-5.708;2023-06-26T19:05:09;29.80;94.30
60234;DHT22;49514;43.538;-5.708;2023-06-26T19:07:36;29.60;95.50
60234;DHT22;49514;43.538;-5.708;2023-06-26T19:10:04;29.30;96.50
60234;DHT22;49514;43.538;-5.708;2023-06-26T19:12:31;29.20;96.90
60234;DHT22;49514;43.538;-5.708;2023-06-26T19:14:59;29.10;97.10
60234;DHT22;49514;43.538;-5.708;2023-06-26T19:17:25;29.00;97.30
60234;DHT22;49514;43.538;-5.708;2023-06-26T19:19:52;28.80;98.40
60234;DHT22;49514;43.538;-5.708;2023-06-26T19:22:19;28.70;98.30
60234;DHT22;49514;43.538;-5.708;2023-06-26T19:24:47;28.60;99.90
60234;DHT22;49514;43.538;-5.708;2023-06-26T19:27:14;28.50;99.40
60234;DHT22;49514;43.538;-5.708;2023-06-26T19:29:41;28.30;99.70
60234;DHT22;49514;43.538;-5.708;2023-06-26T19:32:09;28.30;99.80
60234;DHT22;49514;43.538;-5.708;2023-06-26T19:34:36;28.20;99.90
60234;DHT22;49514;43.538;-5.708;2023-06-26T19:37:04;28.10;99.90
60234;DHT22;49514;43.538;-5.708;2023-06-26T19:39:31;28.00;99.90
60234;DHT22;49514;43.538;-5.708;2023-06-26T19:41:58;28.00;99.90
60234;DHT22;49514;43.538;-5.708;2023-06-26T19:44:24;27.90;99.90
60234;DHT22;49514;43.538;-5.708;2023-06-26T19:46:54;27.80;99.90
60234;DHT22;49514;43.538;-5.708;2023-06-26T19:49:21;27.60;99.90
60234;DHT22;49514;43.538;-5.708;2023-06-26T19:51:48;27.60;99.90
60234;DHT22;49514;43.538;-5.708;2023-06-26T19:54:15;27.50;99.90
60234;DHT22;49514;43.538;-5.708;2023-06-26T19:56:42;27.40;99.90
60234;DHT22;49514;43.538;-5.708;2023-06-26T19:59:10;27.30;99.90
60234;DHT22;49514;43.538;-5.708;2023-06-26T20:01:37;27.20;99.90
60234;DHT22;49514;43.538;-5.708;2023-06-26T20:04:04;27.10;99.90
60234;DHT22;49514;43.538;-5.708;2023-06-26T20:06:38;27.10;99.90
60234;DHT22;49514;43.538;-5.708;2023-06-26T20:09:06;27.00;99.90
60234;DHT22;49514;43.538;-5.708;2023-06-26T20:11:33;26.90;99.90
60234;DHT22;49514;43.538;-5.708;2023-06-26T20:14:01;26.90;99.90
60234;DHT22;49514;43.538;-5.708;2023-06-26T20:16:29;26.80;99.90
60234;DHT22;49514;43.538;-5.708;2023-06-26T20:18:57;26.80;99.90
60234;DHT22;49514;43.538;-5.708;2023-06-26T20:21:23;26.70;99.90
60234;DHT22;49514;43.538;-5.708;2023-06-26T20:23:50;26.60;99.90
60234;DHT22;49514;43.538;-5.708;2023-06-26T20:26:17;26.50;99.90
60234;DHT22;49514;43.538;-5.708;2023-06-26T20:28:45;26.50;99.90
60234;DHT22;49514;43.538;-5.708;2023-06-26T20:31:12;26.50;99.90
60234;DHT22;49514;43.538;-5.708;2023-06-26T20:33:39;26.40;99.90
60234;DHT22;49514;43.538;-5.708;2023-06-26T20:36:06;26.40;99.90
60234;DHT22;49514;43.538;-5.708;2023-06-26T20:38:34;26.30;99.90
60234;DHT22;49514;43.538;-5.708;2023-06-26T20:41:00;26.30;99.90
60234;DHT22;49514;43.538;-5.708;2023-06-26T20:43:28;26.20;99.90
60234;DHT22;49514;43.538;-5.708;2023-06-26T20:45:55;26.20;99.90
60234;DHT22;49514;43.538;-5.708;2023-06-26T20:48:22;26.10;99.90
60234;DHT22;49514;43.538;-5.708;2023-06-26T20:50:50;26.00;99.90
60234;DHT22;49514;43.538;-5.708;2023-06-26T20:53:17;25.90;99.90
60234;DHT22;49514;43.538;-5.708;2023-06-26T20:55:44;25.80;99.90
60234;DHT22;49514;43.538;-5.708;2023-06-26T20:58:11;25.70;99.90
60234;DHT22;49514;43.538;-5.708;2023-06-26T21:00:38;25.70;99.90
60234;DHT22;49514;43.538;-5.708;2023-06-26T21:03:07;25.60;99.90
60234;DHT22;49514;43.538;-5.708;2023-06-26T21:05:34;25.60;99.90
60234;DHT22;49514;43.538;-5.708;2023-06-26T21:08:01;25.50;99.90
60234;DHT22;49514;43.538;-5.708;2023-06-26T21:10:27;25.50;99.90
60234;DHT22;49514;43.538;-5.708;2023-06-26T21:12:55;25.50;99.90
60234;DHT22;49514;43.538;-5.708;2023-06-26T21:15:23;25.50;99.90
60234;DHT22;49514;43.538;-5.708;2023-06-26T21:17:51;25.30;99.90
60234;DHT22;49514;43.538;-5.708;2023-06-26T21:20:19;25.30;99.90
60234;DHT22;49514;43.538;-5.708;2023-06-26T21:22:46;25.20;99.90
60234;DHT22;49514;43.538;-5.708;2023-06-26T21:25:13;25.20;99.90
60234;DHT22;49514;43.538;-5.708;2023-06-26T21:27:40;25.10;99.90
60234;DHT22;49514;43.538;-5.708;2023-06-26T21:30:07;25.10;99.90
60234;DHT22;49514;43.538;-5.708;2023-06-26T21:32:35;25.00;99.90
60234;DHT22;49514;43.538;-5.708;2023-06-26T21:35:04;25.00;99.90
60234;DHT22;49514;43.538;-5.708;2023-06-26T21:37:32;25.00;99.90
60234;DHT22;49514;43.538;-5.708;2023-06-26T21:39:59;24.90;99.90
60234;DHT22;49514;43.538;-5.708;2023-06-26T21:42:26;24.90;99.90
60234;DHT22;49514;43.538;-5.708;2023-06-26T21:44:54;24.90;99.90
60234;DHT22;49514;43.538;-5.708;2023-06-26T21:47:21;24.80;99.90
60234;DHT22;49514;43.538;-5.708;2023-06-26T21:49:48;24.80;99.90
60234;DHT22;49514;43.538;-5.708;2023-06-26T21:52:15;24.80;99.90
60234;DHT22;49514;43.538;-5.708;2023-06-26T21:54:44;24.80;99.90
60234;DHT22;49514;43.538;-5.708;2023-06-26T21:57:12;24.70;99.90
60234;DHT22;49514;43.538;-5.708;2023-06-26T21:59:40;24.70;99.90
60234;DHT22;49514;43.538;-5.708;2023-06-26T22:02:08;24.60;99.90
60234;DHT22;49514;43.538;-5.708;2023-06-26T22:04:35;24.50;99.90
60234;DHT22;49514;43.538;-5.708;2023-06-26T22:07:03;24.50;99.90
60234;DHT22;49514;43.538;-5.708;2023-06-26T22:09:30;24.50;99.90
60234;DHT22;49514;43.538;-5.708;2023-06-26T22:11:58;24.50;99.90
60234;DHT22;49514;43.538;-5.708;2023-06-26T22:14:24;24.50;99.90
60234;DHT22;49514;43.538;-5.708;2023-06-26T22:16:52;24.50;99.90
60234;DHT22;49514;43.538;-5.708;2023-06-26T22:19:19;24.40;99.90
60234;DHT22;49514;43.538;-5.708;2023-06-26T22:21:46;24.40;99.90
60234;DHT22;49514;43.538;-5.708;2023-06-26T22:24:13;24.30;99.90
60234;DHT22;49514;43.538;-5.708;2023-06-26T22:26:40;24.30;99.90
60234;DHT22;49514;43.538;-5.708;2023-06-26T22:29:08;24.30;99.90
60234;DHT22;49514;43.538;-5.708;2023-06-26T22:31:35;24.20;99.90
60234;DHT22;49514;43.538;-5.708;2023-06-26T22:34:01;24.10;99.90